sensor_id;sensor_type;location;lat;lon;timestamp;P1;durP1;ratioP1;P2;durP2;ratioP2
57217;SDS011;43078;52.972;6.482;2023-05-16T00:00:57;13.93;;;2.20;;
57217;SDS011;43078;52.972;6.482;2023-05-16T00:03:46;9.85;;;2.05;;
57217;SDS011;43078;52.972;6.482;2023-05-16T00:08:45;20.38;;;2.63;;
57217;SDS011;43078;52.972;6.482;2023-05-16T00:11:31;12.82;;;2.35;;
57217;SDS011;43078;52.972;6.482;2023-05-16T00:13:58;9.05;;;2.10;;
57217;SDS011;43078;52.972;6.482;2023-05-16T00:16:25;12.43;;;2.35;;
57217;SDS011;43078;52.972;6.482;2023-05-16T00:19:10;11.60;;;2.25;;
57217;SDS011;43078;52.972;6.482;2023-05-16T00:22:28;9.00;;;1.83;;
57217;SDS011;43078;52.972;6.482;2023-05-16T00:25:50;11.48;;;2.42;;
57217;SDS011;43078;52.972;6.482;2023-05-16T00:34:54;9.85;;;1.75;;
57217;SDS011;43078;52.972;6.482;2023-05-16T00:37:20;10.68;;;2.10;;
57217;SDS011;43078;52.972;6.482;2023-05-16T00:47:19;9.88;;;2.38;;
57217;SDS011;43078;52.972;6.482;2023-05-16T00:50:22;11.77;;;2.10;;
57217;SDS011;43078;52.972;6.482;2023-05-16T00:53:32;12.68;;;2.50;;
57217;SDS011;43078;52.972;6.482;2023-05-16T00:56:29;11.55;;;2.13;;
57217;SDS011;43078;52.972;6.482;2023-05-16T01:02:01;12.13;;;1.95;;
57217;SDS011;43078;52.972;6.482;2023-05-16T01:10:38;8.65;;;1.95;;
57217;SDS011;43078;52.972;6.482;2023-05-16T01:20:05;10.88;;;1.92;;
57217;SDS011;43078;52.972;6.482;2023-05-16T01:29:17;11.40;;;1.92;;
57217;SDS011;43078;52.972;6.482;2023-05-16T01:32:06;11.32;;;2.10;;
57217;SDS011;43078;52.972;6.482;2023-05-16T01:34:41;7.40;;;1.60;;
57217;SDS011;43078;52.972;6.482;2023-05-16T01:37:09;10.32;;;1.90;;
57217;SDS011;43078;52.972;6.482;2023-05-16T01:40:22;10.40;;;1.70;;
57217;SDS011;43078;52.972;6.482;2023-05-16T01:43:04;10.02;;;1.95;;
57217;SDS011;43078;52.972;6.482;2023-05-16T01:53:06;8.73;;;1.85;;
57217;SDS011;43078;52.972;6.482;2023-05-16T02:04:07;8.48;;;1.80;;
57217;SDS011;43078;52.972;6.482;2023-05-16T02:06:33;12.43;;;2.00;;
57217;SDS011;43078;52.972;6.482;2023-05-16T02:09:02;9.32;;;1.65;;
57217;SDS011;43078;52.972;6.482;2023-05-16T02:11:27;10.52;;;2.15;;
57217;SDS011;43078;52.972;6.482;2023-05-16T02:14:11;7.47;;;1.73;;
57217;SDS011;43078;52.972;6.482;2023-05-16T02:16:41;8.50;;;1.50;;
57217;SDS011;43078;52.972;6.482;2023-05-16T02:19:24;10.57;;;1.65;;
57217;SDS011;43078;52.972;6.482;2023-05-16T02:21:57;9.82;;;1.80;;
57217;SDS011;43078;52.972;6.482;2023-05-16T02:24:28;7.88;;;1.75;;
57217;SDS011;43078;52.972;6.482;2023-05-16T02:27:12;13.00;;;1.90;;
57217;SDS011;43078;52.972;6.482;2023-05-16T02:32:56;9.38;;;1.80;;
57217;SDS011;43078;52.972;6.482;2023-05-16T02:35:22;9.90;;;1.70;;
57217;SDS011;43078;52.972;6.482;2023-05-16T02:40:35;10.27;;;1.70;;
57217;SDS011;43078;52.972;6.482;2023-05-16T02:43:19;8.50;;;1.60;;
57217;SDS011;43078;52.972;6.482;2023-05-16T02:45:45;9.00;;;1.63;;
57217;SDS011;43078;52.972;6.482;2023-05-16T02:48:23;6.90;;;1.73;;
57217;SDS011;43078;52.972;6.482;2023-05-16T02:50:52;9.55;;;2.28;;
57217;SDS011;43078;52.972;6.482;2023-05-16T02:53:18;9.45;;;1.80;;
57217;SDS011;43078;52.972;6.482;2023-05-16T02:56:50;12.15;;;1.40;;
57217;SDS011;43078;52.972;6.482;2023-05-16T02:59:53;8.40;;;1.75;;
57217;SDS011;43078;52.972;6.482;2023-05-16T03:02:21;8.55;;;1.70;;
57217;SDS011;43078;52.972;6.482;2023-05-16T03:05:30;7.32;;;1.58;;
57217;SDS011;43078;52.972;6.482;2023-05-16T03:08:07;8.55;;;1.50;;
57217;SDS011;43078;52.972;6.482;2023-05-16T03:10:40;10.65;;;1.50;;
57217;SDS011;43078;52.972;6.482;2023-05-16T03:13:29;7.75;;;1.60;;
57217;SDS011;43078;52.972;6.482;2023-05-16T03:20:08;7.93;;;1.52;;
57217;SDS011;43078;52.972;6.482;2023-05-16T03:25:47;9.05;;;1.77;;
57217;SDS011;43078;52.972;6.482;2023-05-16T03:28:12;7.47;;;1.63;;
57217;SDS011;43078;52.972;6.482;2023-05-16T03:31:05;8.68;;;1.80;;
57217;SDS011;43078;52.972;6.482;2023-05-16T03:36:22;7.45;;;1.42;;
57217;SDS011;43078;52.972;6.482;2023-05-16T03:38:51;9.63;;;1.55;;
57217;SDS011;43078;52.972;6.482;2023-05-16T03:41:35;7.90;;;1.50;;
57217;SDS011;43078;52.972;6.482;2023-05-16T03:47:49;8.98;;;1.70;;
57217;SDS011;43078;52.972;6.482;2023-05-16T03:50:16;10.30;;;1.95;;
57217;SDS011;43078;52.972;6.482;2023-05-16T03:53:08;8.63;;;1.95;;
57217;SDS011;43078;52.972;6.482;2023-05-16T03:55:49;6.10;;;1.30;;
57217;SDS011;43078;52.972;6.482;2023-05-16T03:58:17;7.00;;;1.73;;
57217;SDS011;43078;52.972;6.482;2023-05-16T04:01:24;9.02;;;1.50;;
57217;SDS011;43078;52.972;6.482;2023-05-16T04:04:07;10.55;;;1.80;;
57217;SDS011;43078;52.972;6.482;2023-05-16T04:06:38;8.20;;;1.63;;
57217;SDS011;43078;52.972;6.482;2023-05-16T04:09:27;9.85;;;1.70;;
57217;SDS011;43078;52.972;6.482;2023-05-16T04:11:55;13.25;;;2.20;;
57217;SDS011;43078;52.972;6.482;2023-05-16T04:14:24;7.05;;;1.45;;
57217;SDS011;43078;52.972;6.482;2023-05-16T04:16:53;7.18;;;1.70;;
57217;SDS011;43078;52.972;6.482;2023-05-16T04:19:25;9.15;;;1.85;;
57217;SDS011;43078;52.972;6.482;2023-05-16T04:22:00;6.78;;;1.70;;
57217;SDS011;43078;52.972;6.482;2023-05-16T04:24:25;8.55;;;1.80;;
57217;SDS011;43078;52.972;6.482;2023-05-16T04:26:59;8.95;;;1.60;;
57217;SDS011;43078;52.972;6.482;2023-05-16T04:29:25;9.07;;;1.88;;
57217;SDS011;43078;52.972;6.482;2023-05-16T04:32:06;7.22;;;1.50;;
57217;SDS011;43078;52.972;6.482;2023-05-16T04:34:32;8.95;;;1.60;;
57217;SDS011;43078;52.972;6.482;2023-05-16T04:37:04;7.47;;;1.45;;
57217;SDS011;43078;52.972;6.482;2023-05-16T04:39:42;8.00;;;1.50;;
57217;SDS011;43078;52.972;6.482;2023-05-16T04:42:08;10.20;;;1.98;;
57217;SDS011;43078;52.972;6.482;2023-05-16T04:44:33;9.68;;;1.52;;
57217;SDS011;43078;52.972;6.482;2023-05-16T04:47:00;10.48;;;1.60;;
57217;SDS011;43078;52.972;6.482;2023-05-16T04:49:44;6.72;;;1.60;;
57217;SDS011;43078;52.972;6.482;2023-05-16T04:52:18;8.50;;;1.60;;
57217;SDS011;43078;52.972;6.482;2023-05-16T04:57:25;7.35;;;1.50;;
57217;SDS011;43078;52.972;6.482;2023-05-16T04:59:51;7.05;;;1.50;;
57217;SDS011;43078;52.972;6.482;2023-05-16T05:02:17;12.18;;;1.58;;
57217;SDS011;43078;52.972;6.482;2023-05-16T05:04:45;10.40;;;1.73;;
57217;SDS011;43078;52.972;6.482;2023-05-16T05:07:20;12.73;;;1.90;;
57217;SDS011;43078;52.972;6.482;2023-05-16T05:09:52;7.75;;;1.50;;
57217;SDS011;43078;52.972;6.482;2023-05-16T05:12:26;13.55;;;2.10;;
57217;SDS011;43078;52.972;6.482;2023-05-16T05:14:56;8.43;;;1.58;;
57217;SDS011;43078;52.972;6.482;2023-05-16T05:17:27;10.40;;;1.73;;
57217;SDS011;43078;52.972;6.482;2023-05-16T05:22:50;6.90;;;1.40;;
57217;SDS011;43078;52.972;6.482;2023-05-16T05:25:27;8.30;;;1.60;;
57217;SDS011;43078;52.972;6.482;2023-05-16T05:27:53;7.65;;;1.50;;
57217;SDS011;43078;52.972;6.482;2023-05-16T05:30:28;5.68;;;1.42;;
57217;SDS011;43078;52.972;6.482;2023-05-16T05:33:00;8.15;;;1.50;;
57217;SDS011;43078;52.972;6.482;2023-05-16T05:38:48;9.05;;;1.58;;
57217;SDS011;43078;52.972;6.482;2023-05-16T05:41:17;12.43;;;2.10;;
57217;SDS011;43078;52.972;6.482;2023-05-16T05:43:58;13.05;;;1.80;;
57217;SDS011;43078;52.972;6.482;2023-05-16T05:46:42;8.63;;;1.70;;
57217;SDS011;43078;52.972;6.482;2023-05-16T05:49:17;6.82;;;1.42;;
57217;SDS011;43078;52.972;6.482;2023-05-16T05:51:57;12.52;;;1.90;;
57217;SDS011;43078;52.972;6.482;2023-05-16T05:54:32;9.52;;;1.80;;
57217;SDS011;43078;52.972;6.482;2023-05-16T05:57:04;10.80;;;2.13;;
57217;SDS011;43078;52.972;6.482;2023-05-16T05:59:29;8.60;;;1.40;;
57217;SDS011;43078;52.972;6.482;2023-05-16T06:02:05;9.90;;;1.95;;
57217;SDS011;43078;52.972;6.482;2023-05-16T06:04:35;7.03;;;1.27;;
57217;SDS011;43078;52.972;6.482;2023-05-16T06:07:12;8.20;;;1.77;;
57217;SDS011;43078;52.972;6.482;2023-05-16T06:09:49;10.02;;;1.75;;
57217;SDS011;43078;52.972;6.482;2023-05-16T06:12:27;13.45;;;2.30;;
57217;SDS011;43078;52.972;6.482;2023-05-16T06:14:58;6.95;;;1.40;;
57217;SDS011;43078;52.972;6.482;2023-05-16T06:17:33;10.32;;;1.75;;
57217;SDS011;43078;52.972;6.482;2023-05-16T06:20:02;8.45;;;1.63;;
57217;SDS011;43078;52.972;6.482;2023-05-16T06:22:38;14.02;;;2.03;;
57217;SDS011;43078;52.972;6.482;2023-05-16T06:25:06;10.55;;;1.73;;
57217;SDS011;43078;52.972;6.482;2023-05-16T06:36:41;9.70;;;1.30;;
57217;SDS011;43078;52.972;6.482;2023-05-16T06:42:05;8.57;;;1.25;;
57217;SDS011;43078;52.972;6.482;2023-05-16T06:44:50;8.10;;;1.70;;
57217;SDS011;43078;52.972;6.482;2023-05-16T06:47:24;6.82;;;1.40;;
57217;SDS011;43078;52.972;6.482;2023-05-16T07:00:17;7.85;;;1.48;;
57217;SDS011;43078;52.972;6.482;2023-05-16T07:02:43;5.05;;;1.20;;
57217;SDS011;43078;52.972;6.482;2023-05-16T07:08:07;8.27;;;1.40;;
57217;SDS011;43078;52.972;6.482;2023-05-16T07:10:34;10.13;;;1.40;;
57217;SDS011;43078;52.972;6.482;2023-05-16T07:13:03;12.73;;;1.80;;
57217;SDS011;43078;52.972;6.482;2023-05-16T07:15:33;6.75;;;1.33;;
57217;SDS011;43078;52.972;6.482;2023-05-16T07:18:06;8.55;;;1.30;;
57217;SDS011;43078;52.972;6.482;2023-05-16T07:20:40;6.43;;;1.13;;
57217;SDS011;43078;52.972;6.482;2023-05-16T07:23:15;9.82;;;1.55;;
57217;SDS011;43078;52.972;6.482;2023-05-16T07:25:47;8.05;;;1.35;;
57217;SDS011;43078;52.972;6.482;2023-05-16T07:28:22;5.45;;;1.20;;
57217;SDS011;43078;52.972;6.482;2023-05-16T07:30:48;10.20;;;1.55;;
57217;SDS011;43078;52.972;6.482;2023-05-16T07:33:14;10.48;;;1.48;;
57217;SDS011;43078;52.972;6.482;2023-05-16T07:35:40;7.70;;;1.35;;
57217;SDS011;43078;52.972;6.482;2023-05-16T07:38:08;10.85;;;1.63;;
57217;SDS011;43078;52.972;6.482;2023-05-16T07:40:43;8.80;;;1.60;;
57217;SDS011;43078;52.972;6.482;2023-05-16T07:43:18;10.85;;;1.45;;
57217;SDS011;43078;52.972;6.482;2023-05-16T07:45:58;9.25;;;1.38;;
57217;SDS011;43078;52.972;6.482;2023-05-16T07:48:31;10.30;;;1.35;;
57217;SDS011;43078;52.972;6.482;2023-05-16T07:51:03;8.30;;;1.55;;
57217;SDS011;43078;52.972;6.482;2023-05-16T07:53:44;7.55;;;1.25;;
57217;SDS011;43078;52.972;6.482;2023-05-16T07:56:16;11.52;;;1.83;;
57217;SDS011;43078;52.972;6.482;2023-05-16T07:58:59;11.30;;;1.83;;
57217;SDS011;43078;52.972;6.482;2023-05-16T08:01:40;10.27;;;1.30;;
57217;SDS011;43078;52.972;6.482;2023-05-16T08:04:21;7.10;;;1.40;;
57217;SDS011;43078;52.972;6.482;2023-05-16T08:06:59;7.07;;;1.30;;
57217;SDS011;43078;52.972;6.482;2023-05-16T08:09:37;8.10;;;1.20;;
57217;SDS011;43078;52.972;6.482;2023-05-16T08:12:17;10.93;;;1.48;;
57217;SDS011;43078;52.972;6.482;2023-05-16T08:14:43;11.48;;;1.65;;
57217;SDS011;43078;52.972;6.482;2023-05-16T08:17:09;9.20;;;1.33;;
57217;SDS011;43078;52.972;6.482;2023-05-16T08:19:38;11.00;;;1.40;;
57217;SDS011;43078;52.972;6.482;2023-05-16T08:22:10;11.90;;;1.60;;
57217;SDS011;43078;52.972;6.482;2023-05-16T08:24:48;9.85;;;1.85;;
57217;SDS011;43078;52.972;6.482;2023-05-16T08:27:26;7.43;;;1.63;;
57217;SDS011;43078;52.972;6.482;2023-05-16T08:29:52;10.65;;;1.65;;
57217;SDS011;43078;52.972;6.482;2023-05-16T08:32:18;9.65;;;1.40;;
57217;SDS011;43078;52.972;6.482;2023-05-16T08:34:44;8.10;;;1.70;;
57217;SDS011;43078;52.972;6.482;2023-05-16T08:37:09;6.88;;;1.40;;
57217;SDS011;43078;52.972;6.482;2023-05-16T08:39:37;10.02;;;1.40;;
57217;SDS011;43078;52.972;6.482;2023-05-16T08:42:06;6.60;;;1.40;;
57217;SDS011;43078;52.972;6.482;2023-05-16T08:44:33;8.15;;;1.30;;
57217;SDS011;43078;52.972;6.482;2023-05-16T08:47:00;6.53;;;1.30;;
57217;SDS011;43078;52.972;6.482;2023-05-16T08:49:40;7.00;;;1.50;;
57217;SDS011;43078;52.972;6.482;2023-05-16T08:52:07;5.60;;;1.15;;
57217;SDS011;43078;52.972;6.482;2023-05-16T08:54:35;10.68;;;1.50;;
57217;SDS011;43078;52.972;6.482;2023-05-16T08:57:04;8.85;;;1.67;;
57217;SDS011;43078;52.972;6.482;2023-05-16T08:59:35;8.32;;;1.60;;
57217;SDS011;43078;52.972;6.482;2023-05-16T09:02:01;6.82;;;1.20;;
57217;SDS011;43078;52.972;6.482;2023-05-16T09:04:28;10.82;;;1.77;;
57217;SDS011;43078;52.972;6.482;2023-05-16T09:07:16;11.00;;;1.67;;
57217;SDS011;43078;52.972;6.482;2023-05-16T09:09:53;7.95;;;1.25;;
57217;SDS011;43078;52.972;6.482;2023-05-16T09:12:25;10.48;;;1.40;;
57217;SDS011;43078;52.972;6.482;2023-05-16T09:14:57;8.38;;;1.50;;
57217;SDS011;43078;52.972;6.482;2023-05-16T09:17:23;10.23;;;1.60;;
57217;SDS011;43078;52.972;6.482;2023-05-16T09:20:11;12.10;;;1.65;;
57217;SDS011;43078;52.972;6.482;2023-05-16T09:22:51;10.50;;;1.60;;
57217;SDS011;43078;52.972;6.482;2023-05-16T09:25:18;10.32;;;2.08;;
57217;SDS011;43078;52.972;6.482;2023-05-16T09:27:51;10.50;;;1.60;;
57217;SDS011;43078;52.972;6.482;2023-05-16T09:30:27;7.28;;;1.20;;
57217;SDS011;43078;52.972;6.482;2023-05-16T09:32:55;8.50;;;1.30;;
57217;SDS011;43078;52.972;6.482;2023-05-16T09:35:21;10.15;;;1.40;;
57217;SDS011;43078;52.972;6.482;2023-05-16T09:37:48;7.10;;;1.10;;
57217;SDS011;43078;52.972;6.482;2023-05-16T09:40:21;7.88;;;1.60;;
57217;SDS011;43078;52.972;6.482;2023-05-16T09:42:47;9.38;;;1.40;;
57217;SDS011;43078;52.972;6.482;2023-05-16T09:45:32;9.23;;;1.60;;
57217;SDS011;43078;52.972;6.482;2023-05-16T09:48:07;12.00;;;1.70;;
57217;SDS011;43078;52.972;6.482;2023-05-16T09:50:34;9.65;;;1.90;;
57217;SDS011;43078;52.972;6.482;2023-05-16T09:53:01;13.18;;;1.73;;
57217;SDS011;43078;52.972;6.482;2023-05-16T09:55:30;9.25;;;1.60;;
57217;SDS011;43078;52.972;6.482;2023-05-16T09:57:56;8.20;;;1.95;;
57217;SDS011;43078;52.972;6.482;2023-05-16T10:00:22;9.07;;;1.50;;
57217;SDS011;43078;52.972;6.482;2023-05-16T10:02:59;6.57;;;1.27;;
57217;SDS011;43078;52.972;6.482;2023-05-16T10:05:27;7.97;;;1.45;;
57217;SDS011;43078;52.972;6.482;2023-05-16T10:07:56;8.95;;;1.60;;
57217;SDS011;43078;52.972;6.482;2023-05-16T10:10:23;9.15;;;1.70;;
57217;SDS011;43078;52.972;6.482;2023-05-16T10:13:24;8.73;;;1.48;;
57217;SDS011;43078;52.972;6.482;2023-05-16T10:15:56;12.63;;;1.90;;
57217;SDS011;43078;52.972;6.482;2023-05-16T10:18:26;13.75;;;1.90;;
57217;SDS011;43078;52.972;6.482;2023-05-16T10:20:54;9.30;;;1.60;;
57217;SDS011;43078;52.972;6.482;2023-05-16T10:23:24;12.38;;;2.00;;
57217;SDS011;43078;52.972;6.482;2023-05-16T10:25:50;10.20;;;1.38;;
57217;SDS011;43078;52.972;6.482;2023-05-16T10:28:17;7.10;;;1.50;;
57217;SDS011;43078;52.972;6.482;2023-05-16T10:30:44;8.35;;;1.55;;
57217;SDS011;43078;52.972;6.482;2023-05-16T10:33:17;7.60;;;1.60;;
57217;SDS011;43078;52.972;6.482;2023-05-16T10:38:10;5.72;;;1.20;;
57217;SDS011;43078;52.972;6.482;2023-05-16T10:40:43;8.82;;;1.70;;
57217;SDS011;43078;52.972;6.482;2023-05-16T10:43:13;11.13;;;1.60;;
57217;SDS011;43078;52.972;6.482;2023-05-16T10:45:54;7.07;;;1.52;;
57217;SDS011;43078;52.972;6.482;2023-05-16T10:48:29;9.02;;;1.30;;
57217;SDS011;43078;52.972;6.482;2023-05-16T10:50:59;9.30;;;1.30;;
57217;SDS011;43078;52.972;6.482;2023-05-16T10:53:32;7.68;;;1.48;;
57217;SDS011;43078;52.972;6.482;2023-05-16T11:04:19;10.40;;;1.40;;
57217;SDS011;43078;52.972;6.482;2023-05-16T11:06:45;9.93;;;1.50;;
57217;SDS011;43078;52.972;6.482;2023-05-16T11:09:20;10.25;;;1.80;;
57217;SDS011;43078;52.972;6.482;2023-05-16T11:14:19;9.30;;;1.83;;
57217;SDS011;43078;52.972;6.482;2023-05-16T11:16:47;8.90;;;1.50;;
57217;SDS011;43078;52.972;6.482;2023-05-16T11:19:29;10.35;;;1.70;;
57217;SDS011;43078;52.972;6.482;2023-05-16T11:25:04;7.13;;;1.40;;
57217;SDS011;43078;52.972;6.482;2023-05-16T11:27:44;6.65;;;1.33;;
57217;SDS011;43078;52.972;6.482;2023-05-16T11:30:14;9.83;;;1.80;;
57217;SDS011;43078;52.972;6.482;2023-05-16T11:33:01;9.57;;;1.40;;
57217;SDS011;43078;52.972;6.482;2023-05-16T11:35:26;6.38;;;1.50;;
57217;SDS011;43078;52.972;6.482;2023-05-16T11:37:53;7.22;;;1.45;;
57217;SDS011;43078;52.972;6.482;2023-05-16T11:40:23;8.38;;;1.65;;
57217;SDS011;43078;52.972;6.482;2023-05-16T11:42:51;6.82;;;1.45;;
57217;SDS011;43078;52.972;6.482;2023-05-16T11:45:24;10.70;;;1.45;;
57217;SDS011;43078;52.972;6.482;2023-05-16T11:47:53;7.05;;;1.40;;
57217;SDS011;43078;52.972;6.482;2023-05-16T11:50:22;8.25;;;1.55;;
57217;SDS011;43078;52.972;6.482;2023-05-16T11:52:51;7.70;;;1.50;;
57217;SDS011;43078;52.972;6.482;2023-05-16T11:55:20;8.43;;;1.90;;
57217;SDS011;43078;52.972;6.482;2023-05-16T11:57:53;7.50;;;1.55;;
57217;SDS011;43078;52.972;6.482;2023-05-16T12:00:29;9.50;;;1.70;;
57217;SDS011;43078;52.972;6.482;2023-05-16T12:03:01;8.05;;;1.50;;
57217;SDS011;43078;52.972;6.482;2023-05-16T12:05:29;9.43;;;1.77;;
57217;SDS011;43078;52.972;6.482;2023-05-16T12:08:05;9.52;;;1.75;;
57217;SDS011;43078;52.972;6.482;2023-05-16T12:10:33;8.43;;;1.80;;
57217;SDS011;43078;52.972;6.482;2023-05-16T12:13:08;9.43;;;2.13;;
57217;SDS011;43078;52.972;6.482;2023-05-16T12:15:34;9.40;;;1.73;;
57217;SDS011;43078;52.972;6.482;2023-05-16T12:22:02;9.40;;;2.00;;
57217;SDS011;43078;52.972;6.482;2023-05-16T12:27:44;8.93;;;1.98;;
57217;SDS011;43078;52.972;6.482;2023-05-16T12:46:08;8.48;;;2.05;;
57217;SDS011;43078;52.972;6.482;2023-05-16T12:49:11;7.57;;;2.17;;
57217;SDS011;43078;52.972;6.482;2023-05-16T12:51:46;8.57;;;2.38;;
57217;SDS011;43078;52.972;6.482;2023-05-16T13:23:37;10.68;;;2.78;;
57217;SDS011;43078;52.972;6.482;2023-05-16T13:31:50;8.18;;;2.40;;
57217;SDS011;43078;52.972;6.482;2023-05-16T13:52:53;7.30;;;2.50;;
57217;SDS011;43078;52.972;6.482;2023-05-16T13:55:22;8.60;;;2.70;;
57217;SDS011;43078;52.972;6.482;2023-05-16T13:57:48;9.00;;;2.75;;
57217;SDS011;43078;52.972;6.482;2023-05-16T14:00:14;9.95;;;2.70;;
57217;SDS011;43078;52.972;6.482;2023-05-16T14:02:49;9.68;;;2.75;;
57217;SDS011;43078;52.972;6.482;2023-05-16T14:05:15;9.68;;;2.83;;
57217;SDS011;43078;52.972;6.482;2023-05-16T14:07:52;10.77;;;3.38;;
57217;SDS011;43078;52.972;6.482;2023-05-16T14:10:23;10.25;;;3.25;;
57217;SDS011;43078;52.972;6.482;2023-05-16T14:12:59;7.10;;;2.75;;
57217;SDS011;43078;52.972;6.482;2023-05-16T14:15:32;8.27;;;2.08;;
57217;SDS011;43078;52.972;6.482;2023-05-16T14:18:03;6.88;;;2.40;;
57217;SDS011;43078;52.972;6.482;2023-05-16T14:26:14;7.18;;;2.70;;
57217;SDS011;43078;52.972;6.482;2023-05-16T14:34:58;7.20;;;2.70;;
57217;SDS011;43078;52.972;6.482;2023-05-16T14:37:53;6.47;;;2.47;;
57217;SDS011;43078;52.972;6.482;2023-05-16T14:40:19;9.00;;;2.70;;
57217;SDS011;43078;52.972;6.482;2023-05-16T14:42:45;8.00;;;2.67;;
57217;SDS011;43078;52.972;6.482;2023-05-16T14:45:20;6.85;;;2.50;;
57217;SDS011;43078;52.972;6.482;2023-05-16T14:47:52;7.43;;;2.30;;
57217;SDS011;43078;52.972;6.482;2023-05-16T14:50:17;9.68;;;2.65;;
57217;SDS011;43078;52.972;6.482;2023-05-16T14:55:14;9.32;;;2.63;;
57217;SDS011;43078;52.972;6.482;2023-05-16T14:57:45;11.60;;;2.30;;
57217;SDS011;43078;52.972;6.482;2023-05-16T15:00:20;6.50;;;2.25;;
57217;SDS011;43078;52.972;6.482;2023-05-16T15:02:48;8.63;;;2.60;;
57217;SDS011;43078;52.972;6.482;2023-05-16T15:05:16;7.90;;;2.10;;
57217;SDS011;43078;52.972;6.482;2023-05-16T15:07:51;7.75;;;2.30;;
57217;SDS011;43078;52.972;6.482;2023-05-16T15:10:25;7.20;;;1.88;;
57217;SDS011;43078;52.972;6.482;2023-05-16T15:16:15;8.70;;;2.60;;
57217;SDS011;43078;52.972;6.482;2023-05-16T15:18:40;8.68;;;2.08;;
57217;SDS011;43078;52.972;6.482;2023-05-16T15:21:10;8.55;;;2.80;;
57217;SDS011;43078;52.972;6.482;2023-05-16T15:23:50;9.20;;;2.38;;
57217;SDS011;43078;52.972;6.482;2023-05-16T15:26:16;12.23;;;4.47;;
57217;SDS011;43078;52.972;6.482;2023-05-16T15:28:42;93.80;;;35.97;;
57217;SDS011;43078;52.972;6.482;2023-05-16T15:31:23;43.40;;;15.50;;
57217;SDS011;43078;52.972;6.482;2023-05-16T15:33:55;37.60;;;15.60;;
57217;SDS011;43078;52.972;6.482;2023-05-16T15:36:35;64.97;;;27.00;;
57217;SDS011;43078;52.972;6.482;2023-05-16T15:39:06;43.58;;;19.30;;
57217;SDS011;43078;52.972;6.482;2023-05-16T15:41:35;32.10;;;15.02;;
57217;SDS011;43078;52.972;6.482;2023-05-16T15:44:00;26.30;;;10.50;;
57217;SDS011;43078;52.972;6.482;2023-05-16T15:46:26;19.60;;;9.15;;
57217;SDS011;43078;52.972;6.482;2023-05-16T15:48:54;32.40;;;14.13;;
57217;SDS011;43078;52.972;6.482;2023-05-16T15:51:20;32.58;;;12.88;;
57217;SDS011;43078;52.972;6.482;2023-05-16T15:53:46;17.17;;;5.93;;
57217;SDS011;43078;52.972;6.482;2023-05-16T15:56:12;11.93;;;4.88;;
57217;SDS011;43078;52.972;6.482;2023-05-16T15:58:43;10.07;;;3.72;;
57217;SDS011;43078;52.972;6.482;2023-05-16T16:01:10;11.50;;;3.67;;
57217;SDS011;43078;52.972;6.482;2023-05-16T16:03:36;20.17;;;7.43;;
57217;SDS011;43078;52.972;6.482;2023-05-16T16:06:02;15.32;;;6.43;;
57217;SDS011;43078;52.972;6.482;2023-05-16T16:08:28;13.95;;;5.28;;
57217;SDS011;43078;52.972;6.482;2023-05-16T16:10:54;12.93;;;4.93;;
57217;SDS011;43078;52.972;6.482;2023-05-16T16:13:19;16.05;;;6.18;;
57217;SDS011;43078;52.972;6.482;2023-05-16T16:15:45;12.85;;;5.35;;
57217;SDS011;43078;52.972;6.482;2023-05-16T16:18:11;11.02;;;4.32;;
57217;SDS011;43078;52.972;6.482;2023-05-16T16:20:37;11.98;;;5.00;;
57217;SDS011;43078;52.972;6.482;2023-05-16T16:23:03;13.25;;;5.57;;
57217;SDS011;43078;52.972;6.482;2023-05-16T16:25:29;15.75;;;6.53;;
57217;SDS011;43078;52.972;6.482;2023-05-16T16:27:54;11.38;;;4.72;;
57217;SDS011;43078;52.972;6.482;2023-05-16T16:30:20;14.73;;;5.72;;
57217;SDS011;43078;52.972;6.482;2023-05-16T16:32:46;13.25;;;4.57;;
57217;SDS011;43078;52.972;6.482;2023-05-16T16:35:13;10.15;;;3.10;;
57217;SDS011;43078;52.972;6.482;2023-05-16T16:37:38;9.02;;;2.95;;
57217;SDS011;43078;52.972;6.482;2023-05-16T16:40:06;11.35;;;3.97;;
57217;SDS011;43078;52.972;6.482;2023-05-16T16:42:45;10.45;;;3.20;;
57217;SDS011;43078;52.972;6.482;2023-05-16T16:45:16;9.63;;;2.67;;
57217;SDS011;43078;52.972;6.482;2023-05-16T16:47:49;9.70;;;2.97;;
57217;SDS011;43078;52.972;6.482;2023-05-16T16:50:21;9.23;;;2.75;;
57217;SDS011;43078;52.972;6.482;2023-05-16T16:52:49;10.25;;;2.72;;
57217;SDS011;43078;52.972;6.482;2023-05-16T16:55:18;8.77;;;3.03;;
57217;SDS011;43078;52.972;6.482;2023-05-16T16:57:48;8.85;;;1.80;;
57217;SDS011;43078;52.972;6.482;2023-05-16T17:00:19;9.88;;;2.28;;
57217;SDS011;43078;52.972;6.482;2023-05-16T17:02:57;9.30;;;3.63;;
57217;SDS011;43078;52.972;6.482;2023-05-16T17:05:35;5.97;;;1.70;;
57217;SDS011;43078;52.972;6.482;2023-05-16T17:08:01;7.82;;;2.35;;
57217;SDS011;43078;52.972;6.482;2023-05-16T17:10:29;6.78;;;2.42;;
57217;SDS011;43078;52.972;6.482;2023-05-16T17:13:04;7.18;;;1.45;;
57217;SDS011;43078;52.972;6.482;2023-05-16T17:15:40;9.23;;;2.47;;
57217;SDS011;43078;52.972;6.482;2023-05-16T17:18:17;9.60;;;2.75;;
57217;SDS011;43078;52.972;6.482;2023-05-16T17:20:50;5.53;;;1.23;;
57217;SDS011;43078;52.972;6.482;2023-05-16T17:23:28;6.10;;;1.92;;
57217;SDS011;43078;52.972;6.482;2023-05-16T17:26:00;5.43;;;1.25;;
57217;SDS011;43078;52.972;6.482;2023-05-16T17:28:37;8.05;;;1.55;;
57217;SDS011;43078;52.972;6.482;2023-05-16T17:31:06;7.20;;;1.50;;
57217;SDS011;43078;52.972;6.482;2023-05-16T17:33:37;6.05;;;1.65;;
57217;SDS011;43078;52.972;6.482;2023-05-16T17:36:09;6.85;;;1.77;;
57217;SDS011;43078;52.972;6.482;2023-05-16T17:38:50;5.15;;;1.40;;
57217;SDS011;43078;52.972;6.482;2023-05-16T17:41:21;7.35;;;1.70;;
57217;SDS011;43078;52.972;6.482;2023-05-16T17:43:50;6.53;;;1.50;;
57217;SDS011;43078;52.972;6.482;2023-05-16T17:46:25;7.65;;;2.00;;
57217;SDS011;43078;52.972;6.482;2023-05-16T17:49:03;6.50;;;1.92;;
57217;SDS011;43078;52.972;6.482;2023-05-16T17:54:39;6.60;;;1.85;;
57217;SDS011;43078;52.972;6.482;2023-05-16T17:57:04;7.97;;;1.83;;
57217;SDS011;43078;52.972;6.482;2023-05-16T17:59:42;7.85;;;2.28;;
57217;SDS011;43078;52.972;6.482;2023-05-16T18:02:08;5.70;;;1.80;;
57217;SDS011;43078;52.972;6.482;2023-05-16T18:04:43;7.95;;;2.15;;
57217;SDS011;43078;52.972;6.482;2023-05-16T18:07:15;6.38;;;1.75;;
57217;SDS011;43078;52.972;6.482;2023-05-16T18:09:40;8.18;;;1.90;;
57217;SDS011;43078;52.972;6.482;2023-05-16T18:12:17;8.13;;;2.13;;
57217;SDS011;43078;52.972;6.482;2023-05-16T18:14:55;7.15;;;1.98;;
57217;SDS011;43078;52.972;6.482;2023-05-16T18:17:27;8.05;;;2.30;;
57217;SDS011;43078;52.972;6.482;2023-05-16T18:20:02;8.45;;;2.50;;
57217;SDS011;43078;52.972;6.482;2023-05-16T18:22:34;9.88;;;2.22;;
57217;SDS011;43078;52.972;6.482;2023-05-16T18:25:10;10.60;;;3.00;;
57217;SDS011;43078;52.972;6.482;2023-05-16T18:27:36;11.45;;;2.60;;
57217;SDS011;43078;52.972;6.482;2023-05-16T18:30:33;7.95;;;2.03;;
57217;SDS011;43078;52.972;6.482;2023-05-16T18:33:03;7.65;;;2.17;;
57217;SDS011;43078;52.972;6.482;2023-05-16T18:35:28;8.25;;;2.17;;
57217;SDS011;43078;52.972;6.482;2023-05-16T18:37:57;7.88;;;2.30;;
57217;SDS011;43078;52.972;6.482;2023-05-16T18:40:35;6.85;;;2.10;;
57217;SDS011;43078;52.972;6.482;2023-05-16T18:43:01;12.23;;;2.95;;
57217;SDS011;43078;52.972;6.482;2023-05-16T18:45:27;7.47;;;2.38;;
57217;SDS011;43078;52.972;6.482;2023-05-16T18:48:00;6.78;;;2.25;;
57217;SDS011;43078;52.972;6.482;2023-05-16T18:50:31;9.52;;;2.78;;
57217;SDS011;43078;52.972;6.482;2023-05-16T18:53:04;11.88;;;2.45;;
57217;SDS011;43078;52.972;6.482;2023-05-16T18:55:30;9.70;;;2.63;;
57217;SDS011;43078;52.972;6.482;2023-05-16T18:57:55;9.27;;;3.03;;
57217;SDS011;43078;52.972;6.482;2023-05-16T19:00:22;6.88;;;2.30;;